createdAt,value
2018-09-18T00:00:03.227Z,10.80
2018-09-18T00:02:31.794Z,10.80
2018-09-18T00:05:00.519Z,10.60
2018-09-18T00:07:29.074Z,10.60
2018-09-18T00:09:58.173Z,10.60
2018-09-18T00:12:26.686Z,10.50
2018-09-18T00:14:55.172Z,10.50
2018-09-18T00:17:23.984Z,10.40
2018-09-18T00:19:52.556Z,10.30
2018-09-18T00:22:21.305Z,10.30
2018-09-18T00:24:49.912Z,10.30
2018-09-18T00:27:18.644Z,10.30
2018-09-18T00:29:47.136Z,10.30
2018-09-18T00:32:15.627Z,10.30
2018-09-18T00:34:44.440Z,10.40
2018-09-18T00:37:13.136Z,10.40
2018-09-18T00:39:41.633Z,10.40
2018-09-18T00:42:10.201Z,10.40
2018-09-18T00:44:38.704Z,10.30
2018-09-18T00:47:07.636Z,10.20
2018-09-18T00:49:36.157Z,10.20
2018-09-18T00:52:04.964Z,10.20
2018-09-18T00:54:33.543Z,10.20
2018-09-18T00:57:02.183Z,10.30
2018-09-18T00:59:30.895Z,10.20
2018-09-18T01:01:59.434Z,10.00
2018-09-18T01:04:28.119Z,9.90
2018-09-18T01:06:56.636Z,9.90
2018-09-18T01:09:25.331Z,10.00
2018-09-18T01:11:54.099Z,9.90
2018-09-18T01:14:22.612Z,9.90
2018-09-18T01:16:51.087Z,10.00
2018-09-18T01:19:19.690Z,10.10
2018-09-18T01:21:48.184Z,10.10
2018-09-18T01:24:17.008Z,10.00
2018-09-18T01:26:45.746Z,10.00
2018-09-18T01:29:14.613Z,10.00
2018-09-18T01:31:43.170Z,9.90
2018-09-18T01:34:11.721Z,9.90
2018-09-18T01:36:40.209Z,9.80
2018-09-18T01:39:09.543Z,9.80
2018-09-18T01:41:38.055Z,9.80
2018-09-18T01:44:07.147Z,9.80
2018-09-18T01:46:35.837Z,9.70
2018-09-18T01:49:04.681Z,9.70
2018-09-18T01:51:33.642Z,9.60
2018-09-18T01:54:02.189Z,9.50
2018-09-18T01:56:31.091Z,9.50
2018-09-18T01:58:59.723Z,9.50
2018-09-18T02:01:28.198Z,9.40
2018-09-18T02:03:56.836Z,9.40
2018-09-18T02:06:25.583Z,9.50
2018-09-18T02:08:54.379Z,9.40
2018-09-18T02:11:23.262Z,9.50
2018-09-18T02:13:51.787Z,9.60
2018-09-18T02:16:20.576Z,9.50
2018-09-18T02:18:49.097Z,9.50
2018-09-18T02:21:18.091Z,9.40
2018-09-18T02:23:46.660Z,9.50
2018-09-18T02:26:15.328Z,9.50
2018-09-18T02:28:43.817Z,9.50
2018-09-18T02:31:12.385Z,9.40
2018-09-18T02:33:41.313Z,9.30
2018-09-18T02:36:09.909Z,9.30
2018-09-18T02:38:38.409Z,9.30
2018-09-18T02:41:07.089Z,9.40
2018-09-18T02:43:35.636Z,9.30
2018-09-18T02:46:04.126Z,9.20
2018-09-18T02:48:32.629Z,9.20
2018-09-18T02:51:01.576Z,9.20
2018-09-18T02:53:30.202Z,9.20
2018-09-18T02:55:58.719Z,9.20
2018-09-18T02:58:27.229Z,9.30
2018-09-18T03:00:55.768Z,9.30
2018-09-18T03:03:24.531Z,9.30
2018-09-18T03:05:53.058Z,9.30
2018-09-18T03:08:21.602Z,9.20
2018-09-18T03:10:50.115Z,9.10
2018-09-18T03:13:18.854Z,9.00
2018-09-18T03:15:47.365Z,9.10
2018-09-18T03:18:16.035Z,9.10
2018-09-18T03:20:44.572Z,9.20
2018-09-18T03:23:13.048Z,9.20
2018-09-18T03:25:41.593Z,9.10
2018-09-18T03:28:10.487Z,9.10
2018-09-18T03:30:39.031Z,9.10
2018-09-18T03:33:07.769Z,9.10
2018-09-18T03:35:36.559Z,9.00
2018-09-18T03:38:05.490Z,9.00
2018-09-18T03:40:34.200Z,8.90
2018-09-18T03:43:02.778Z,8.90
2018-09-18T03:45:31.605Z,8.90
2018-09-18T03:48:00.152Z,9.00
2018-09-18T03:50:29.025Z,9.00
2018-09-18T03:52:57.585Z,9.10
2018-09-18T03:55:26.086Z,9.10
2018-09-18T03:57:54.668Z,9.00
2018-09-18T04:00:23.272Z,9.00
2018-09-18T04:02:52.214Z,9.00
2018-09-18T04:05:20.727Z,9.00
2018-09-18T04:07:49.757Z,9.00
2018-09-18T04:10:18.577Z,9.10
2018-09-18T04:12:47.108Z,9.00
2018-09-18T04:15:15.675Z,9.00
2018-09-18T04:17:44.431Z,8.90
2018-09-18T04:20:13.137Z,8.90
2018-09-18T04:22:41.645Z,8.90
2018-09-18T04:25:10.198Z,9.00
2018-09-18T04:27:39.536Z,9.00
2018-09-18T04:30:08.209Z,9.00
2018-09-18T04:32:36.981Z,9.00
2018-09-18T04:35:05.896Z,9.00
2018-09-18T04:37:34.410Z,9.00
2018-09-18T04:40:03.542Z,9.10
2018-09-18T04:42:32.229Z,9.10
2018-09-18T04:45:00.747Z,9.00
2018-09-18T04:47:29.285Z,8.90
2018-09-18T04:49:58.099Z,8.90
2018-09-18T04:52:26.774Z,8.90
2018-09-18T04:54:55.380Z,8.90
2018-09-18T04:57:23.796Z,8.90
2018-09-18T04:59:52.539Z,8.80
2018-09-18T05:02:21.531Z,8.80
2018-09-18T05:04:50.080Z,8.80
2018-09-18T05:07:18.569Z,8.70
2018-09-18T05:09:47.100Z,8.70
2018-09-18T05:12:15.694Z,8.70
2018-09-18T05:14:44.239Z,8.60
2018-09-18T05:17:12.750Z,8.70
2018-09-18T05:19:41.635Z,8.70
2018-09-18T05:22:10.130Z,8.70
2018-09-18T05:24:38.627Z,8.80
2018-09-18T05:27:07.164Z,8.80
2018-09-18T05:29:35.688Z,8.80
2018-09-18T05:32:04.182Z,8.70
2018-09-18T05:34:32.929Z,8.70
2018-09-18T05:37:01.465Z,8.80
2018-09-18T05:39:29.997Z,8.80
2018-09-18T05:41:58.882Z,8.90
2018-09-18T05:44:27.417Z,8.90
2018-09-18T05:46:56.066Z,8.90
2018-09-18T05:49:26.583Z,8.90
2018-09-18T05:51:55.435Z,9.00
2018-09-18T05:54:24.324Z,9.20
2018-09-18T05:56:52.872Z,9.20
2018-09-18T05:59:22.155Z,9.40
2018-09-18T06:01:50.712Z,9.60
2018-09-18T06:04:19.531Z,9.70
2018-09-18T06:06:48.053Z,9.80
2018-09-18T06:09:16.541Z,9.90
2018-09-18T06:11:45.276Z,10.00
2018-09-18T06:14:17.684Z,10.10
2018-09-18T06:16:46.199Z,10.20
2018-09-18T06:19:14.925Z,10.30
2018-09-18T06:21:43.403Z,10.50
2018-09-18T06:24:12.100Z,10.60
2018-09-18T06:26:40.715Z,10.70
2018-09-18T06:29:09.407Z,10.70
2018-09-18T06:31:37.946Z,10.90
2018-09-18T06:34:06.443Z,11.10
2018-09-18T06:36:34.980Z,11.20
2018-09-18T06:39:04.349Z,11.30
2018-09-18T06:41:32.996Z,11.30
2018-09-18T06:44:01.548Z,11.40
2018-09-18T06:46:30.261Z,11.50
2018-09-18T06:48:58.827Z,11.60
2018-09-18T06:51:27.440Z,11.70
2018-09-18T06:53:56.329Z,11.80
2018-09-18T06:56:24.873Z,11.90
2018-09-18T06:58:53.749Z,12.00
2018-09-18T07:01:22.285Z,12.10
2018-09-18T07:03:50.805Z,12.30
2018-09-18T07:06:19.690Z,12.40
2018-09-18T07:08:48.446Z,12.50
2018-09-18T07:11:16.968Z,12.70
2018-09-18T07:13:46.079Z,12.80
2018-09-18T07:16:14.596Z,12.90
2018-09-18T07:18:43.639Z,13.10
2018-09-18T07:21:12.625Z,13.20
2018-09-18T07:23:41.586Z,13.30
2018-09-18T07:26:10.262Z,13.40
2018-09-18T07:28:39.023Z,13.60
2018-09-18T07:31:07.815Z,13.80
2018-09-18T07:33:36.524Z,13.80
2018-09-18T07:36:05.251Z,14.00
2018-09-18T07:38:34.339Z,14.30
2018-09-18T07:41:02.983Z,14.40
2018-09-18T07:43:31.888Z,14.50
2018-09-18T07:46:00.582Z,14.70
2018-09-18T07:48:34.514Z,14.80
2018-09-18T07:51:03.514Z,15.00
2018-09-18T07:53:32.447Z,15.20
2018-09-18T07:56:01.247Z,15.30
2018-09-18T07:58:30.199Z,15.50
2018-09-18T08:00:59.268Z,15.70
2018-09-18T08:03:28.252Z,15.70
2018-09-18T08:05:56.850Z,15.90
2018-09-18T08:08:25.549Z,16.20
2018-09-18T08:10:54.242Z,16.40
2018-09-18T08:13:22.905Z,16.60
2018-09-18T08:15:51.830Z,16.70
2018-09-18T08:18:20.402Z,16.90
2018-09-18T08:20:49.016Z,17.10
2018-09-18T08:23:17.649Z,19.70
2018-09-18T08:25:46.769Z,17.50
2018-09-18T08:28:15.837Z,17.70
2018-09-18T08:30:44.546Z,18.10
2018-09-18T08:33:13.112Z,18.40
2018-09-18T08:35:41.665Z,18.80
2018-09-18T08:38:10.255Z,19.40
2018-09-18T08:40:38.954Z,20.00
2018-09-18T08:43:07.462Z,20.80
2018-09-18T08:45:36.302Z,21.40
2018-09-18T08:48:05.161Z,21.90
2018-09-18T08:50:33.956Z,22.50
2018-09-18T08:53:02.540Z,22.80
2018-09-18T08:55:31.395Z,23.20
2018-09-18T08:58:00.324Z,23.50
2018-09-18T09:00:29.179Z,23.80
2018-09-18T09:02:58.089Z,24.10
2018-09-18T09:05:26.832Z,24.20
2018-09-18T09:07:55.597Z,24.50
2018-09-18T09:10:24.487Z,24.70
2018-09-18T09:12:53.049Z,25.00
2018-09-18T09:15:21.962Z,25.10
2018-09-18T09:17:50.560Z,25.40
2018-09-18T09:20:19.415Z,25.60
2018-09-18T09:22:47.970Z,25.80
2018-09-18T09:25:16.714Z,26.10
2018-09-18T09:27:45.485Z,26.20
2018-09-18T09:30:14.052Z,26.50
2018-09-18T09:32:43.237Z,26.70
2018-09-18T09:35:11.860Z,27.10
2018-09-18T09:37:40.373Z,27.40
2018-09-18T09:40:09.674Z,27.70
2018-09-18T09:42:38.208Z,28.10
2018-09-18T09:45:07.120Z,28.70
2018-09-18T09:47:35.820Z,29.00
2018-09-18T09:50:04.558Z,29.80
2018-09-18T09:52:33.499Z,30.40
2018-09-18T09:55:02.318Z,30.60
2018-09-18T09:57:31.356Z,31.10
2018-09-18T10:00:00.413Z,31.50
2018-09-18T10:02:30.548Z,32.00
2018-09-18T10:04:59.619Z,31.90
2018-09-18T10:07:28.323Z,32.20
2018-09-18T10:09:56.934Z,32.20
2018-09-18T10:12:25.756Z,32.60
2018-09-18T10:14:54.614Z,33.10
2018-09-18T10:17:23.353Z,33.00
2018-09-18T10:19:52.135Z,33.10
2018-09-18T10:22:21.180Z,33.50
2018-09-18T10:24:49.949Z,33.90
2018-09-18T10:27:18.532Z,34.30
2018-09-18T10:29:47.223Z,34.50
2018-09-18T10:32:16.192Z,34.70
2018-09-18T10:34:44.885Z,35.40
2018-09-18T10:37:13.640Z,35.60
2018-09-18T10:39:42.613Z,35.70
2018-09-18T10:42:11.773Z,35.40
2018-09-18T10:44:40.568Z,35.40
2018-09-18T10:47:09.113Z,35.20
2018-09-18T10:49:38.013Z,35.70
2018-09-18T10:52:06.674Z,35.90
2018-09-18T10:54:35.576Z,36.30
2018-09-18T10:57:04.121Z,36.60
2018-09-18T10:59:33.015Z,36.60
2018-09-18T11:02:01.626Z,35.90
2018-09-18T11:04:30.384Z,36.20
2018-09-18T11:06:59.243Z,36.30
2018-09-18T11:09:28.215Z,36.10
2018-09-18T11:11:56.806Z,35.60
2018-09-18T11:14:25.323Z,36.00
2018-09-18T11:16:53.918Z,36.60
2018-09-18T11:19:22.604Z,36.70
2018-09-18T11:21:51.770Z,36.80
2018-09-18T11:24:20.520Z,36.80
2018-09-18T11:26:49.577Z,36.80
2018-09-18T11:29:18.321Z,36.90
2018-09-18T11:31:47.315Z,36.90
2018-09-18T11:34:15.993Z,36.60
2018-09-18T11:36:44.887Z,35.90
2018-09-18T11:39:13.696Z,36.20
2018-09-18T11:41:42.675Z,35.90
2018-09-18T11:44:11.543Z,36.40
2018-09-18T11:46:40.250Z,36.80
2018-09-18T11:49:08.883Z,37.40
2018-09-18T11:51:37.453Z,37.50
2018-09-18T11:54:06.624Z,37.80
2018-09-18T11:56:35.220Z,38.20
2018-09-18T11:59:04.322Z,38.90
2018-09-18T12:01:33.117Z,38.60
2018-09-18T12:04:02.099Z,39.30
2018-09-18T12:06:30.906Z,38.70
2018-09-18T12:08:59.547Z,39.80
2018-09-18T12:11:28.274Z,39.80
2018-09-18T12:13:56.828Z,39.30
2018-09-18T12:16:25.740Z,39.20
2018-09-18T12:18:54.581Z,39.10
2018-09-18T12:21:23.216Z,38.70
2018-09-18T12:23:51.788Z,38.50
2018-09-18T12:26:20.561Z,38.90
2018-09-18T12:28:49.252Z,37.70
2018-09-18T12:31:17.997Z,38.20
2018-09-18T12:33:46.944Z,39.00
2018-09-18T12:36:15.836Z,38.50
2018-09-18T12:38:44.388Z,39.10
2018-09-18T12:41:13.291Z,39.50
2018-09-18T12:43:42.243Z,39.50
2018-09-18T12:46:10.928Z,40.20
2018-09-18T12:48:39.720Z,39.40
2018-09-18T12:51:08.289Z,39.30
2018-09-18T12:53:37.297Z,39.30
2018-09-18T12:56:05.904Z,39.20
2018-09-18T12:58:34.683Z,39.50
2018-09-18T13:01:03.189Z,38.80
2018-09-18T13:03:32.354Z,38.30
2018-09-18T13:06:01.331Z,37.90
2018-09-18T13:08:30.149Z,38.20
2018-09-18T13:10:59.097Z,38.00
2018-09-18T13:13:28.043Z,37.80
2018-09-18T13:15:56.826Z,37.60
2018-09-18T13:18:26.022Z,38.00
2018-09-18T13:20:54.841Z,39.30
2018-09-18T13:23:23.966Z,39.40
2018-09-18T13:25:52.733Z,40.00
2018-09-18T13:28:21.454Z,39.30
2018-09-18T13:30:50.107Z,38.60
2018-09-18T13:33:18.656Z,38.50
2018-09-18T13:35:47.434Z,38.90
2018-09-18T13:38:16.349Z,39.50
2018-09-18T13:40:44.916Z,39.90
2018-09-18T13:43:13.568Z,39.80
2018-09-18T13:45:42.167Z,39.80
2018-09-18T13:48:10.975Z,39.90
2018-09-18T13:50:39.920Z,39.40
2018-09-18T13:53:08.695Z,39.30
2018-09-18T13:55:37.827Z,39.00
2018-09-18T13:58:06.759Z,38.60
2018-09-18T14:00:35.858Z,39.10
2018-09-18T14:03:04.887Z,40.20
2018-09-18T14:05:33.857Z,41.00
2018-09-18T14:08:02.768Z,41.50
2018-09-18T14:10:31.731Z,40.80
2018-09-18T14:13:01.304Z,40.80
2018-09-18T14:15:30.374Z,41.40
2018-09-18T14:17:59.044Z,41.10
2018-09-18T14:20:27.628Z,41.20
2018-09-18T14:22:56.168Z,41.40
2018-09-18T14:25:24.828Z,41.40
2018-09-18T14:27:53.557Z,40.70
2018-09-18T14:30:22.511Z,39.20
2018-09-18T14:32:51.274Z,39.10
2018-09-18T14:35:20.568Z,38.90
2018-09-18T14:37:49.155Z,38.80
2018-09-18T14:40:17.857Z,39.40
2018-09-18T14:42:46.644Z,39.10
2018-09-18T14:45:15.199Z,38.90
2018-09-18T14:47:44.213Z,38.70
2018-09-18T14:50:13.024Z,39.20
2018-09-18T14:52:41.843Z,38.70
2018-09-18T14:55:10.610Z,38.70
2018-09-18T14:57:39.163Z,38.30
2018-09-18T15:00:08.062Z,38.60
2018-09-18T15:02:36.812Z,39.00
2018-09-18T15:05:05.723Z,38.90
2018-09-18T15:07:34.799Z,39.80
2018-09-18T15:10:03.457Z,40.20
2018-09-18T15:12:32.042Z,41.00
2018-09-18T15:15:00.665Z,41.70
2018-09-18T15:17:30.063Z,41.40
2018-09-18T15:19:58.804Z,40.50
2018-09-18T15:22:27.459Z,39.40
2018-09-18T15:24:56.189Z,39.10
2018-09-18T15:27:25.055Z,38.90
2018-09-18T15:29:53.764Z,39.70
2018-09-18T15:32:22.339Z,38.30
2018-09-18T15:34:51.332Z,38.60
2018-09-18T15:37:20.317Z,38.50
2018-09-18T15:39:49.195Z,38.50
2018-09-18T15:42:17.914Z,38.40
2018-09-18T15:44:46.485Z,38.60
2018-09-18T15:47:15.273Z,38.40
2018-09-18T15:49:44.155Z,38.00
2018-09-18T15:52:12.715Z,37.10
2018-09-18T15:54:41.626Z,37.50
2018-09-18T15:57:10.475Z,37.90
2018-09-18T15:59:39.246Z,37.60
2018-09-18T16:02:08.560Z,36.70
2018-09-18T16:04:37.176Z,37.00
2018-09-18T16:07:06.083Z,35.90
2018-09-18T16:09:34.897Z,35.00
2018-09-18T16:12:03.510Z,34.50
2018-09-18T16:14:32.249Z,33.50
2018-09-18T16:17:00.771Z,32.80
2018-09-18T16:19:29.492Z,32.20
2018-09-18T16:21:58.179Z,31.50
2018-09-18T16:24:26.876Z,31.20
2018-09-18T16:26:55.601Z,31.00
2018-09-18T16:29:24.464Z,30.60
2018-09-18T16:31:53.363Z,30.20
2018-09-18T16:34:22.672Z,29.90
2018-09-18T16:36:51.617Z,29.40
2018-09-18T16:39:20.373Z,31.40
2018-09-18T16:41:48.993Z,28.70
2018-09-18T16:44:18.189Z,28.40
2018-09-18T16:46:47.197Z,28.10
2018-09-18T16:49:16.167Z,28.00
2018-09-18T16:51:45.116Z,27.80
2018-09-18T16:54:13.936Z,27.60
2018-09-18T16:56:42.517Z,27.40
2018-09-18T16:59:11.122Z,27.30
2018-09-18T17:01:39.718Z,27.10
2018-09-18T17:04:08.457Z,27.00
2018-09-18T17:06:37.272Z,26.80
2018-09-18T17:09:07.668Z,26.70
2018-09-18T17:11:36.423Z,26.70
2018-09-18T17:14:05.369Z,26.60
2018-09-18T17:16:34.462Z,26.50
2018-09-18T17:19:03.326Z,26.30
2018-09-18T17:21:32.083Z,26.20
2018-09-18T17:24:00.797Z,26.00
2018-09-18T17:26:29.563Z,25.90
2018-09-18T17:28:58.554Z,25.80
2018-09-18T17:31:27.219Z,25.80
2018-09-18T17:33:56.036Z,25.70
2018-09-18T17:36:24.887Z,25.60
2018-09-18T17:38:53.775Z,25.50
2018-09-18T17:41:22.788Z,25.40
2018-09-18T17:43:51.739Z,25.30
2018-09-18T17:46:20.905Z,25.30
2018-09-18T17:48:50.301Z,25.30
2018-09-18T17:51:19.572Z,25.30
2018-09-18T17:53:48.942Z,25.20
2018-09-18T17:56:17.713Z,25.30
2018-09-18T17:58:46.818Z,25.30
2018-09-18T18:01:15.489Z,25.20
2018-09-18T18:03:44.298Z,25.10
2018-09-18T18:06:13.052Z,25.10
2018-09-18T18:08:41.988Z,25.00
2018-09-18T18:11:10.693Z,24.90
2018-09-18T18:13:39.686Z,24.90
2018-09-18T18:16:08.485Z,24.70
2018-09-18T18:18:37.791Z,24.70
2018-09-18T18:21:06.872Z,24.70
2018-09-18T18:23:36.165Z,24.60
2018-09-18T18:26:05.524Z,24.50
2018-09-18T18:28:34.674Z,24.40
2018-09-18T18:31:03.541Z,24.40
2018-09-18T18:33:32.415Z,24.10
2018-09-18T18:36:01.472Z,24.20
2018-09-18T18:38:30.366Z,24.00
2018-09-18T18:40:59.728Z,23.80
2018-09-18T18:43:28.264Z,23.60
2018-09-18T18:45:57.060Z,23.50
2018-09-18T18:48:26.061Z,23.40
2018-09-18T18:50:54.853Z,23.30
2018-09-18T18:53:23.884Z,23.10
2018-09-18T18:55:52.769Z,22.90
2018-09-18T18:58:21.742Z,22.80
2018-09-18T19:00:50.810Z,22.60
2018-09-18T19:03:19.734Z,22.50
2018-09-18T19:05:48.754Z,22.30
2018-09-18T19:08:17.561Z,22.10
2018-09-18T19:10:46.411Z,21.90
2018-09-18T19:13:15.131Z,21.80
2018-09-18T19:15:44.191Z,21.70
2018-09-18T19:18:13.238Z,21.60
2018-09-18T19:20:42.384Z,21.40
2018-09-18T19:23:11.194Z,21.30
2018-09-18T19:25:40.033Z,21.20
2018-09-18T19:28:09.224Z,21.10
2018-09-18T19:30:38.201Z,20.90
2018-09-18T19:33:07.296Z,20.80
2018-09-18T19:35:36.346Z,20.70
2018-09-18T19:38:05.278Z,20.60
2018-09-18T19:40:34.322Z,20.50
2018-09-18T19:43:03.409Z,20.40
2018-09-18T19:45:32.535Z,20.20
2018-09-18T19:48:01.414Z,20.20
2018-09-18T19:50:30.092Z,20.10
2018-09-18T19:52:59.130Z,19.90
2018-09-18T19:55:28.342Z,19.80
2018-09-18T19:57:57.161Z,19.70
2018-09-18T20:00:26.035Z,19.60
2018-09-18T20:02:54.877Z,19.60
2018-09-18T20:05:23.732Z,19.50
2018-09-18T20:07:52.308Z,19.40
2018-09-18T20:10:21.064Z,19.20
2018-09-18T20:12:49.857Z,19.10
2018-09-18T20:15:18.500Z,19.00
2018-09-18T20:17:47.495Z,19.00
2018-09-18T20:20:16.523Z,18.90
2018-09-18T20:22:45.256Z,18.90
2018-09-18T20:25:14.094Z,18.80
2018-09-18T20:27:43.009Z,18.70
2018-09-18T20:30:11.914Z,18.60
2018-09-18T20:32:41.067Z,18.50
2018-09-18T20:35:10.154Z,18.50
2018-09-18T20:37:38.880Z,18.40
2018-09-18T20:40:07.678Z,18.30
2018-09-18T20:42:36.423Z,18.20
2018-09-18T20:45:05.430Z,18.10
2018-09-18T20:47:34.156Z,18.10
2018-09-18T20:50:02.740Z,18.10
2018-09-18T20:52:31.414Z,18.00
2018-09-18T20:55:00.280Z,17.90
2018-09-18T20:57:29.066Z,17.90
2018-09-18T20:59:57.805Z,17.80
2018-09-18T21:02:26.665Z,17.70
2018-09-18T21:04:55.647Z,17.70
2018-09-18T21:07:24.325Z,17.50
2018-09-18T21:09:53.048Z,17.40
2018-09-18T21:12:21.870Z,17.30
2018-09-18T21:14:50.396Z,17.30
2018-09-18T21:17:19.094Z,17.30
2018-09-18T21:19:47.964Z,17.30
2018-09-18T21:22:16.551Z,17.20
2018-09-18T21:24:45.828Z,17.10
2018-09-18T21:27:14.365Z,17.20
2018-09-18T21:29:42.923Z,17.10
2018-09-18T21:32:11.880Z,17.00
2018-09-18T21:34:40.473Z,17.00
2018-09-18T21:37:09.072Z,16.80
2018-09-18T21:39:38.048Z,16.80
2018-09-18T21:42:06.682Z,16.70
2018-09-18T21:44:35.642Z,16.60
2018-09-18T21:47:04.385Z,16.50
2018-09-18T21:49:32.942Z,16.50
2018-09-18T21:52:01.550Z,16.50
2018-09-18T21:54:30.117Z,16.40
2018-09-18T21:56:58.892Z,16.40
2018-09-18T21:59:27.672Z,16.50
2018-09-18T22:01:56.337Z,16.50
2018-09-18T22:04:24.855Z,16.40
2018-09-18T22:06:53.603Z,16.30
2018-09-18T22:09:22.411Z,16.30
2018-09-18T22:11:51.188Z,16.30
2018-09-18T22:14:19.814Z,16.30
2018-09-18T22:16:48.555Z,16.30
2018-09-18T22:19:17.477Z,16.20
2018-09-18T22:21:46.369Z,16.10
2018-09-18T22:24:15.256Z,16.00
2018-09-18T22:26:44.030Z,16.00
2018-09-18T22:29:12.526Z,16.00
2018-09-18T22:31:41.221Z,16.10
2018-09-18T22:34:09.849Z,16.00
2018-09-18T22:36:38.568Z,15.90
2018-09-18T22:39:08.703Z,15.80
2018-09-18T22:41:37.460Z,15.70
2018-09-18T22:44:05.971Z,15.80
2018-09-18T22:46:34.469Z,15.70
2018-09-18T22:49:03.337Z,15.60
2018-09-18T22:51:32.110Z,15.60
2018-09-18T22:54:00.543Z,15.50
2018-09-18T22:56:29.072Z,15.50
2018-09-18T22:58:57.875Z,15.50
2018-09-18T23:01:26.417Z,15.50
2018-09-18T23:03:55.129Z,15.40
2018-09-18T23:06:23.707Z,15.30
2018-09-18T23:08:52.490Z,15.30
2018-09-18T23:11:21.110Z,15.30
2018-09-18T23:13:49.792Z,15.30
2018-09-18T23:16:18.299Z,15.20
2018-09-18T23:18:47.285Z,15.20
2018-09-18T23:21:15.779Z,15.20
2018-09-18T23:23:44.437Z,15.10
2018-09-18T23:26:13.151Z,15.10
2018-09-18T23:28:41.628Z,15.10
2018-09-18T23:31:10.238Z,15.10
2018-09-18T23:33:39.033Z,14.90
2018-09-18T23:36:07.554Z,14.90
2018-09-18T23:38:36.065Z,14.80
2018-09-18T23:41:04.655Z,14.70
2018-09-18T23:43:33.182Z,14.80
2018-09-18T23:46:02.171Z,14.80
2018-09-18T23:48:30.880Z,14.80
2018-09-18T23:50:59.513Z,14.80
2018-09-18T23:53:28.441Z,14.80
2018-09-18T23:55:57.133Z,14.70
2018-09-18T23:58:26.189Z,14.70
